sensor_id;sensor_type;location;lat;lon;timestamp;P1;durP1;ratioP1;P2;durP2;ratioP2
27999;SDS011;15328;50.860;10.562;2023-04-25T00:02:20;7.85;;;4.28;;
27999;SDS011;15328;50.860;10.562;2023-04-25T00:07:20;6.18;;;4.40;;
27999;SDS011;15328;50.860;10.562;2023-04-25T00:12:21;9.43;;;4.93;;
27999;SDS011;15328;50.860;10.562;2023-04-25T00:17:22;9.02;;;4.30;;
27999;SDS011;15328;50.860;10.562;2023-04-25T00:22:26;5.15;;;3.90;;
27999;SDS011;15328;50.860;10.562;2023-04-25T00:27:27;9.02;;;3.70;;
27999;SDS011;15328;50.860;10.562;2023-04-25T00:32:27;5.63;;;3.50;;
27999;SDS011;15328;50.860;10.562;2023-04-25T00:37:27;6.53;;;3.93;;
27999;SDS011;15328;50.860;10.562;2023-04-25T00:42:28;7.40;;;4.47;;
27999;SDS011;15328;50.860;10.562;2023-04-25T00:47:28;7.28;;;4.63;;
27999;SDS011;15328;50.860;10.562;2023-04-25T00:52:28;8.05;;;4.70;;
27999;SDS011;15328;50.860;10.562;2023-04-25T00:57:29;9.57;;;4.95;;
27999;SDS011;15328;50.860;10.562;2023-04-25T01:02:30;6.07;;;4.45;;
27999;SDS011;15328;50.860;10.562;2023-04-25T01:07:31;7.55;;;4.40;;
27999;SDS011;15328;50.860;10.562;2023-04-25T01:12:31;8.50;;;3.92;;
27999;SDS011;15328;50.860;10.562;2023-04-25T01:17:33;7.20;;;4.43;;
27999;SDS011;15328;50.860;10.562;2023-04-25T01:22:34;6.60;;;3.85;;
27999;SDS011;15328;50.860;10.562;2023-04-25T01:27:36;7.22;;;3.60;;
27999;SDS011;15328;50.860;10.562;2023-04-25T01:32:37;5.88;;;3.70;;
27999;SDS011;15328;50.860;10.562;2023-04-25T01:37:41;5.30;;;3.38;;
27999;SDS011;15328;50.860;10.562;2023-04-25T01:42:42;5.22;;;3.17;;
27999;SDS011;15328;50.860;10.562;2023-04-25T01:47:43;4.70;;;3.33;;
27999;SDS011;15328;50.860;10.562;2023-04-25T01:52:48;3.65;;;2.88;;
27999;SDS011;15328;50.860;10.562;2023-04-25T01:57:49;5.63;;;3.60;;
27999;SDS011;15328;50.860;10.562;2023-04-25T02:02:49;6.40;;;4.00;;
27999;SDS011;15328;50.860;10.562;2023-04-25T02:07:50;5.32;;;3.80;;
27999;SDS011;15328;50.860;10.562;2023-04-25T02:12:50;6.07;;;3.83;;
27999;SDS011;15328;50.860;10.562;2023-04-25T02:17:51;6.63;;;3.63;;
27999;SDS011;15328;50.860;10.562;2023-04-25T02:22:54;6.47;;;3.83;;
27999;SDS011;15328;50.860;10.562;2023-04-25T02:27:54;7.50;;;4.18;;
27999;SDS011;15328;50.860;10.562;2023-04-25T02:32:55;4.88;;;3.40;;
27999;SDS011;15328;50.860;10.562;2023-04-25T02:37:56;7.55;;;4.30;;
27999;SDS011;15328;50.860;10.562;2023-04-25T02:42:56;6.30;;;4.00;;
27999;SDS011;15328;50.860;10.562;2023-04-25T02:47:57;10.70;;;4.72;;
27999;SDS011;15328;50.860;10.562;2023-04-25T02:52:57;6.57;;;4.10;;
27999;SDS011;15328;50.860;10.562;2023-04-25T02:57:57;6.13;;;4.07;;
27999;SDS011;15328;50.860;10.562;2023-04-25T03:02:58;8.93;;;3.97;;
27999;SDS011;15328;50.860;10.562;2023-04-25T03:07:59;6.47;;;3.85;;
27999;SDS011;15328;50.860;10.562;2023-04-25T03:12:59;5.27;;;3.70;;
27999;SDS011;15328;50.860;10.562;2023-04-25T03:17:59;6.72;;;3.85;;
27999;SDS011;15328;50.860;10.562;2023-04-25T03:22:59;7.50;;;3.80;;
27999;SDS011;15328;50.860;10.562;2023-04-25T03:28:00;7.63;;;3.50;;
27999;SDS011;15328;50.860;10.562;2023-04-25T03:33:00;7.17;;;4.03;;
27999;SDS011;15328;50.860;10.562;2023-04-25T03:38:00;8.30;;;4.20;;
27999;SDS011;15328;50.860;10.562;2023-04-25T03:43:01;8.73;;;4.20;;
27999;SDS011;15328;50.860;10.562;2023-04-25T03:48:01;10.18;;;4.53;;
27999;SDS011;15328;50.860;10.562;2023-04-25T03:53:01;9.40;;;3.92;;
27999;SDS011;15328;50.860;10.562;2023-04-25T03:58:02;7.83;;;3.50;;
27999;SDS011;15328;50.860;10.562;2023-04-25T04:03:02;3.97;;;3.17;;
27999;SDS011;15328;50.860;10.562;2023-04-25T04:08:03;5.68;;;3.67;;
27999;SDS011;15328;50.860;10.562;2023-04-25T04:13:03;7.00;;;3.80;;
27999;SDS011;15328;50.860;10.562;2023-04-25T04:18:03;6.70;;;3.40;;
27999;SDS011;15328;50.860;10.562;2023-04-25T04:23:04;5.20;;;2.85;;
27999;SDS011;15328;50.860;10.562;2023-04-25T04:28:05;8.10;;;3.10;;
27999;SDS011;15328;50.860;10.562;2023-04-25T04:33:06;5.28;;;3.00;;
27999;SDS011;15328;50.860;10.562;2023-04-25T04:38:07;5.93;;;3.28;;
27999;SDS011;15328;50.860;10.562;2023-04-25T04:43:07;5.00;;;2.90;;
27999;SDS011;15328;50.860;10.562;2023-04-25T04:48:10;6.45;;;2.97;;
27999;SDS011;15328;50.860;10.562;2023-04-25T04:53:11;8.18;;;3.17;;
27999;SDS011;15328;50.860;10.562;2023-04-25T04:58:13;8.43;;;3.55;;
27999;SDS011;15328;50.860;10.562;2023-04-25T05:03:13;6.07;;;3.45;;
27999;SDS011;15328;50.860;10.562;2023-04-25T05:08:14;15.27;;;6.93;;
27999;SDS011;15328;50.860;10.562;2023-04-25T05:13:14;6.72;;;3.15;;
27999;SDS011;15328;50.860;10.562;2023-04-25T05:18:25;9.95;;;3.22;;
27999;SDS011;15328;50.860;10.562;2023-04-25T05:23:46;7.10;;;2.97;;
27999;SDS011;15328;50.860;10.562;2023-04-25T05:28:49;5.85;;;3.28;;
27999;SDS011;15328;50.860;10.562;2023-04-25T05:33:51;8.52;;;3.30;;
27999;SDS011;15328;50.860;10.562;2023-04-25T05:38:51;9.25;;;3.63;;
27999;SDS011;15328;50.860;10.562;2023-04-25T05:43:52;8.05;;;4.18;;
27999;SDS011;15328;50.860;10.562;2023-04-25T05:48:52;8.93;;;3.42;;
27999;SDS011;15328;50.860;10.562;2023-04-25T05:53:56;8.68;;;3.17;;
27999;SDS011;15328;50.860;10.562;2023-04-25T05:58:56;6.68;;;2.78;;
27999;SDS011;15328;50.860;10.562;2023-04-25T06:04:02;7.53;;;2.97;;
27999;SDS011;15328;50.860;10.562;2023-04-25T06:09:12;6.28;;;2.75;;
27999;SDS011;15328;50.860;10.562;2023-04-25T06:14:16;5.55;;;3.00;;
27999;SDS011;15328;50.860;10.562;2023-04-25T06:19:32;4.00;;;2.72;;
27999;SDS011;15328;50.860;10.562;2023-04-25T06:24:39;7.25;;;2.70;;
27999;SDS011;15328;50.860;10.562;2023-04-25T06:30:06;5.03;;;2.20;;
27999;SDS011;15328;50.860;10.562;2023-04-25T06:35:16;5.07;;;2.25;;
27999;SDS011;15328;50.860;10.562;2023-04-25T06:40:24;3.73;;;1.90;;
27999;SDS011;15328;50.860;10.562;2023-04-25T06:45:24;2.35;;;1.70;;
27999;SDS011;15328;50.860;10.562;2023-04-25T06:50:35;2.78;;;1.60;;
27999;SDS011;15328;50.860;10.562;2023-04-25T06:55:44;4.75;;;2.10;;
27999;SDS011;15328;50.860;10.562;2023-04-25T07:01:13;6.32;;;2.70;;
27999;SDS011;15328;50.860;10.562;2023-04-25T07:06:20;4.20;;;1.92;;
27999;SDS011;15328;50.860;10.562;2023-04-25T07:11:57;4.22;;;2.00;;
27999;SDS011;15328;50.860;10.562;2023-04-25T07:17:21;2.88;;;1.92;;
27999;SDS011;15328;50.860;10.562;2023-04-25T07:22:27;3.70;;;1.98;;
27999;SDS011;15328;50.860;10.562;2023-04-25T07:27:33;5.03;;;2.30;;
27999;SDS011;15328;50.860;10.562;2023-04-25T07:32:34;2.58;;;1.70;;
27999;SDS011;15328;50.860;10.562;2023-04-25T07:37:35;3.55;;;1.90;;
27999;SDS011;15328;50.860;10.562;2023-04-25T07:42:42;2.53;;;1.60;;
27999;SDS011;15328;50.860;10.562;2023-04-25T07:47:51;3.03;;;2.10;;
27999;SDS011;15328;50.860;10.562;2023-04-25T07:52:52;4.20;;;2.05;;
27999;SDS011;15328;50.860;10.562;2023-04-25T07:58:04;4.97;;;2.30;;
27999;SDS011;15328;50.860;10.562;2023-04-25T08:03:15;4.80;;;3.00;;
27999;SDS011;15328;50.860;10.562;2023-04-25T08:08:29;3.22;;;2.10;;
27999;SDS011;15328;50.860;10.562;2023-04-25T08:13:38;2.83;;;2.08;;
27999;SDS011;15328;50.860;10.562;2023-04-25T08:18:47;5.50;;;2.67;;
27999;SDS011;15328;50.860;10.562;2023-04-25T08:24:10;5.05;;;2.03;;
27999;SDS011;15328;50.860;10.562;2023-04-25T08:29:20;6.55;;;2.58;;
27999;SDS011;15328;50.860;10.562;2023-04-25T08:34:37;7.40;;;3.17;;
27999;SDS011;15328;50.860;10.562;2023-04-25T08:39:56;4.90;;;2.45;;
27999;SDS011;15328;50.860;10.562;2023-04-25T08:45:20;4.07;;;2.60;;
27999;SDS011;15328;50.860;10.562;2023-04-25T08:51:15;5.68;;;2.55;;
27999;SDS011;15328;50.860;10.562;2023-04-25T09:02:01;3.70;;;2.50;;
27999;SDS011;15328;50.860;10.562;2023-04-25T09:07:24;5.80;;;2.75;;
27999;SDS011;15328;50.860;10.562;2023-04-25T09:12:47;5.25;;;2.30;;
27999;SDS011;15328;50.860;10.562;2023-04-25T09:18:38;6.35;;;2.90;;
27999;SDS011;15328;50.860;10.562;2023-04-25T09:23:45;3.28;;;2.10;;
27999;SDS011;15328;50.860;10.562;2023-04-25T09:29:10;6.07;;;2.55;;
27999;SDS011;15328;50.860;10.562;2023-04-25T09:34:25;4.80;;;2.10;;
27999;SDS011;15328;50.860;10.562;2023-04-25T09:39:38;7.15;;;2.40;;
27999;SDS011;15328;50.860;10.562;2023-04-25T09:44:45;6.03;;;1.98;;
27999;SDS011;15328;50.860;10.562;2023-04-25T09:49:55;5.43;;;2.00;;
27999;SDS011;15328;50.860;10.562;2023-04-25T09:54:55;9.00;;;2.00;;
27999;SDS011;15328;50.860;10.562;2023-04-25T09:59:55;10.13;;;2.67;;
27999;SDS011;15328;50.860;10.562;2023-04-25T10:04:56;6.15;;;2.55;;
27999;SDS011;15328;50.860;10.562;2023-04-25T10:10:00;5.20;;;1.92;;
27999;SDS011;15328;50.860;10.562;2023-04-25T10:15:03;7.22;;;2.30;;
27999;SDS011;15328;50.860;10.562;2023-04-25T10:20:04;5.18;;;1.67;;
27999;SDS011;15328;50.860;10.562;2023-04-25T10:25:10;8.50;;;1.80;;
27999;SDS011;15328;50.860;10.562;2023-04-25T10:30:14;4.95;;;1.90;;
27999;SDS011;15328;50.860;10.562;2023-04-25T10:35:19;5.30;;;1.65;;
27999;SDS011;15328;50.860;10.562;2023-04-25T10:40:25;3.78;;;1.58;;
27999;SDS011;15328;50.860;10.562;2023-04-25T10:45:25;3.83;;;1.75;;
27999;SDS011;15328;50.860;10.562;2023-04-25T10:50:26;5.32;;;1.70;;
27999;SDS011;15328;50.860;10.562;2023-04-25T10:55:49;4.95;;;1.70;;
27999;SDS011;15328;50.860;10.562;2023-04-25T11:00:51;7.72;;;2.10;;
27999;SDS011;15328;50.860;10.562;2023-04-25T11:05:52;7.43;;;2.15;;
27999;SDS011;15328;50.860;10.562;2023-04-25T11:10:53;5.70;;;2.17;;
27999;SDS011;15328;50.860;10.562;2023-04-25T11:15:54;7.18;;;2.28;;
27999;SDS011;15328;50.860;10.562;2023-04-25T11:20:55;7.18;;;2.20;;
27999;SDS011;15328;50.860;10.562;2023-04-25T11:25:55;6.30;;;2.03;;
27999;SDS011;15328;50.860;10.562;2023-04-25T11:30:56;5.18;;;2.42;;
27999;SDS011;15328;50.860;10.562;2023-04-25T11:35:57;9.80;;;2.40;;
27999;SDS011;15328;50.860;10.562;2023-04-25T11:40:58;5.15;;;1.90;;
27999;SDS011;15328;50.860;10.562;2023-04-25T11:45:58;5.55;;;1.77;;
27999;SDS011;15328;50.860;10.562;2023-04-25T11:50:59;6.70;;;2.17;;
27999;SDS011;15328;50.860;10.562;2023-04-25T11:56:00;2.97;;;1.50;;
27999;SDS011;15328;50.860;10.562;2023-04-25T12:01:01;8.25;;;2.10;;
27999;SDS011;15328;50.860;10.562;2023-04-25T12:06:03;4.15;;;1.60;;
27999;SDS011;15328;50.860;10.562;2023-04-25T12:11:04;6.28;;;1.90;;
27999;SDS011;15328;50.860;10.562;2023-04-25T12:16:04;6.78;;;1.80;;
27999;SDS011;15328;50.860;10.562;2023-04-25T12:21:05;6.72;;;2.03;;
27999;SDS011;15328;50.860;10.562;2023-04-25T12:26:05;6.63;;;1.83;;
27999;SDS011;15328;50.860;10.562;2023-04-25T12:31:07;7.45;;;1.95;;
27999;SDS011;15328;50.860;10.562;2023-04-25T12:36:08;6.93;;;2.00;;
27999;SDS011;15328;50.860;10.562;2023-04-25T12:41:09;9.23;;;2.72;;
27999;SDS011;15328;50.860;10.562;2023-04-25T12:46:09;6.87;;;2.30;;
27999;SDS011;15328;50.860;10.562;2023-04-25T12:51:09;4.95;;;1.75;;
27999;SDS011;15328;50.860;10.562;2023-04-25T12:56:10;6.07;;;1.93;;
27999;SDS011;15328;50.860;10.562;2023-04-25T13:01:11;7.13;;;1.75;;
27999;SDS011;15328;50.860;10.562;2023-04-25T13:06:12;4.57;;;1.55;;
27999;SDS011;15328;50.860;10.562;2023-04-25T13:11:12;6.25;;;1.75;;
27999;SDS011;15328;50.860;10.562;2023-04-25T13:16:14;7.13;;;1.80;;
27999;SDS011;15328;50.860;10.562;2023-04-25T13:21:15;4.82;;;1.48;;
27999;SDS011;15328;50.860;10.562;2023-04-25T13:26:16;3.25;;;1.60;;
27999;SDS011;15328;50.860;10.562;2023-04-25T13:31:16;6.07;;;1.92;;
27999;SDS011;15328;50.860;10.562;2023-04-25T13:36:16;6.80;;;2.20;;
27999;SDS011;15328;50.860;10.562;2023-04-25T13:41:17;7.53;;;1.90;;
27999;SDS011;15328;50.860;10.562;2023-04-25T13:46:18;4.57;;;1.52;;
27999;SDS011;15328;50.860;10.562;2023-04-25T13:51:19;4.93;;;1.50;;
27999;SDS011;15328;50.860;10.562;2023-04-25T13:56:19;4.57;;;1.67;;
27999;SDS011;15328;50.860;10.562;2023-04-25T14:01:20;5.43;;;1.58;;
27999;SDS011;15328;50.860;10.562;2023-04-25T14:06:21;4.65;;;1.73;;
27999;SDS011;15328;50.860;10.562;2023-04-25T14:11:23;5.35;;;2.72;;
27999;SDS011;15328;50.860;10.562;2023-04-25T14:16:24;4.35;;;1.90;;
27999;SDS011;15328;50.860;10.562;2023-04-25T14:21:24;5.00;;;1.80;;
27999;SDS011;15328;50.860;10.562;2023-04-25T14:26:25;4.53;;;1.50;;
27999;SDS011;15328;50.860;10.562;2023-04-25T14:31:25;6.20;;;1.70;;
27999;SDS011;15328;50.860;10.562;2023-04-25T14:36:26;7.47;;;1.92;;
27999;SDS011;15328;50.860;10.562;2023-04-25T14:41:28;4.75;;;1.40;;
27999;SDS011;15328;50.860;10.562;2023-04-25T14:46:28;5.83;;;1.60;;
27999;SDS011;15328;50.860;10.562;2023-04-25T14:51:29;6.40;;;1.55;;
27999;SDS011;15328;50.860;10.562;2023-04-25T14:56:29;3.33;;;1.20;;
27999;SDS011;15328;50.860;10.562;2023-04-25T15:01:30;7.07;;;4.18;;
27999;SDS011;15328;50.860;10.562;2023-04-25T15:06:33;5.78;;;1.98;;
27999;SDS011;15328;50.860;10.562;2023-04-25T15:11:36;5.75;;;1.58;;
27999;SDS011;15328;50.860;10.562;2023-04-25T15:16:37;5.22;;;1.70;;
27999;SDS011;15328;50.860;10.562;2023-04-25T15:21:44;4.03;;;1.70;;
27999;SDS011;15328;50.860;10.562;2023-04-25T15:26:50;5.30;;;1.30;;
27999;SDS011;15328;50.860;10.562;2023-04-25T15:31:57;4.30;;;1.45;;
27999;SDS011;15328;50.860;10.562;2023-04-25T15:36:57;8.48;;;1.92;;
27999;SDS011;15328;50.860;10.562;2023-04-25T15:42:01;3.85;;;1.50;;
27999;SDS011;15328;50.860;10.562;2023-04-25T15:47:04;3.50;;;1.15;;
27999;SDS011;15328;50.860;10.562;2023-04-25T15:52:16;2.22;;;1.20;;
27999;SDS011;15328;50.860;10.562;2023-04-25T15:57:20;5.22;;;1.75;;
27999;SDS011;15328;50.860;10.562;2023-04-25T16:02:21;3.25;;;1.50;;
27999;SDS011;15328;50.860;10.562;2023-04-25T16:07:25;3.90;;;1.42;;
27999;SDS011;15328;50.860;10.562;2023-04-25T16:12:25;4.70;;;1.58;;
27999;SDS011;15328;50.860;10.562;2023-04-25T16:17:27;3.90;;;1.38;;
27999;SDS011;15328;50.860;10.562;2023-04-25T16:22:32;2.78;;;1.00;;
27999;SDS011;15328;50.860;10.562;2023-04-25T16:27:33;4.53;;;1.17;;
27999;SDS011;15328;50.860;10.562;2023-04-25T16:32:42;3.67;;;1.50;;
27999;SDS011;15328;50.860;10.562;2023-04-25T16:37:45;4.45;;;2.00;;
27999;SDS011;15328;50.860;10.562;2023-04-25T16:42:49;6.03;;;1.80;;
27999;SDS011;15328;50.860;10.562;2023-04-25T16:47:56;4.35;;;1.27;;
27999;SDS011;15328;50.860;10.562;2023-04-25T16:52:56;3.50;;;1.27;;
27999;SDS011;15328;50.860;10.562;2023-04-25T16:57:57;3.00;;;1.50;;
27999;SDS011;15328;50.860;10.562;2023-04-25T17:03:03;5.00;;;1.48;;
27999;SDS011;15328;50.860;10.562;2023-04-25T17:08:03;3.97;;;1.40;;
27999;SDS011;15328;50.860;10.562;2023-04-25T17:13:07;2.65;;;1.20;;
27999;SDS011;15328;50.860;10.562;2023-04-25T17:18:10;3.25;;;0.95;;
27999;SDS011;15328;50.860;10.562;2023-04-25T17:23:14;4.05;;;1.60;;
27999;SDS011;15328;50.860;10.562;2023-04-25T17:28:15;3.70;;;1.40;;
27999;SDS011;15328;50.860;10.562;2023-04-25T17:33:18;3.97;;;1.15;;
27999;SDS011;15328;50.860;10.562;2023-04-25T17:38:25;2.50;;;1.20;;
27999;SDS011;15328;50.860;10.562;2023-04-25T17:43:26;4.00;;;1.50;;
27999;SDS011;15328;50.860;10.562;2023-04-25T17:48:31;4.25;;;1.20;;
27999;SDS011;15328;50.860;10.562;2023-04-25T17:53:34;3.28;;;1.33;;
27999;SDS011;15328;50.860;10.562;2023-04-25T17:58:38;5.53;;;1.10;;
27999;SDS011;15328;50.860;10.562;2023-04-25T18:04:02;3.97;;;1.15;;
27999;SDS011;15328;50.860;10.562;2023-04-25T18:09:06;4.05;;;1.60;;
27999;SDS011;15328;50.860;10.562;2023-04-25T18:14:16;4.00;;;1.27;;
27999;SDS011;15328;50.860;10.562;2023-04-25T18:19:16;1.70;;;1.00;;
27999;SDS011;15328;50.860;10.562;2023-04-25T18:24:23;4.30;;;1.20;;
27999;SDS011;15328;50.860;10.562;2023-04-25T18:29:27;2.65;;;1.20;;
27999;SDS011;15328;50.860;10.562;2023-04-25T18:34:27;3.00;;;1.08;;
27999;SDS011;15328;50.860;10.562;2023-04-25T18:39:28;4.13;;;1.30;;
27999;SDS011;15328;50.860;10.562;2023-04-25T18:44:28;5.53;;;1.42;;
27999;SDS011;15328;50.860;10.562;2023-04-25T18:49:35;4.97;;;1.90;;
27999;SDS011;15328;50.860;10.562;2023-04-25T18:54:36;2.17;;;1.00;;
27999;SDS011;15328;50.860;10.562;2023-04-25T18:59:37;3.17;;;1.00;;
27999;SDS011;15328;50.860;10.562;2023-04-25T19:04:38;3.50;;;0.80;;
27999;SDS011;15328;50.860;10.562;2023-04-25T19:09:41;3.55;;;1.00;;
27999;SDS011;15328;50.860;10.562;2023-04-25T19:14:45;3.53;;;1.20;;
27999;SDS011;15328;50.860;10.562;2023-04-25T19:19:46;3.20;;;1.10;;
27999;SDS011;15328;50.860;10.562;2023-04-25T19:24:49;2.53;;;0.93;;
27999;SDS011;15328;50.860;10.562;2023-04-25T19:29:49;3.70;;;1.27;;
27999;SDS011;15328;50.860;10.562;2023-04-25T19:34:58;3.15;;;0.90;;
27999;SDS011;15328;50.860;10.562;2023-04-25T19:40:00;4.82;;;0.90;;
27999;SDS011;15328;50.860;10.562;2023-04-25T19:45:01;2.60;;;1.05;;
27999;SDS011;15328;50.860;10.562;2023-04-25T19:50:04;2.83;;;1.08;;
27999;SDS011;15328;50.860;10.562;2023-04-25T19:55:10;4.05;;;1.40;;
27999;SDS011;15328;50.860;10.562;2023-04-25T20:00:15;3.15;;;1.20;;
27999;SDS011;15328;50.860;10.562;2023-04-25T20:05:20;3.90;;;1.20;;
27999;SDS011;15328;50.860;10.562;2023-04-25T20:10:21;3.38;;;1.00;;
27999;SDS011;15328;50.860;10.562;2023-04-25T20:15:21;3.65;;;1.13;;
27999;SDS011;15328;50.860;10.562;2023-04-25T20:20:22;3.35;;;1.08;;
27999;SDS011;15328;50.860;10.562;2023-04-25T20:25:22;2.63;;;0.80;;
27999;SDS011;15328;50.860;10.562;2023-04-25T20:30:23;2.92;;;0.93;;
27999;SDS011;15328;50.860;10.562;2023-04-25T20:35:23;3.08;;;0.90;;
27999;SDS011;15328;50.860;10.562;2023-04-25T20:40:27;3.88;;;1.13;;
27999;SDS011;15328;50.860;10.562;2023-04-25T20:45:30;3.78;;;1.38;;
27999;SDS011;15328;50.860;10.562;2023-04-25T20:50:33;2.40;;;1.00;;
27999;SDS011;15328;50.860;10.562;2023-04-25T20:55:33;5.07;;;1.20;;
27999;SDS011;15328;50.860;10.562;2023-04-25T21:00:36;2.47;;;1.00;;
27999;SDS011;15328;50.860;10.562;2023-04-25T21:05:37;3.25;;;1.30;;
27999;SDS011;15328;50.860;10.562;2023-04-25T21:10:38;3.50;;;1.15;;
27999;SDS011;15328;50.860;10.562;2023-04-25T21:15:39;2.78;;;1.10;;
27999;SDS011;15328;50.860;10.562;2023-04-25T21:20:39;2.17;;;1.17;;
27999;SDS011;15328;50.860;10.562;2023-04-25T21:25:40;3.83;;;1.30;;
27999;SDS011;15328;50.860;10.562;2023-04-25T21:30:42;3.78;;;0.98;;
27999;SDS011;15328;50.860;10.562;2023-04-25T21:35:42;2.50;;;1.17;;
27999;SDS011;15328;50.860;10.562;2023-04-25T21:40:43;4.40;;;1.10;;
27999;SDS011;15328;50.860;10.562;2023-04-25T21:45:43;2.92;;;1.30;;
27999;SDS011;15328;50.860;10.562;2023-04-25T21:50:47;3.15;;;1.20;;
27999;SDS011;15328;50.860;10.562;2023-04-25T21:55:47;2.45;;;0.93;;
27999;SDS011;15328;50.860;10.562;2023-04-25T22:00:48;4.10;;;1.40;;
27999;SDS011;15328;50.860;10.562;2023-04-25T22:05:48;5.30;;;1.45;;
27999;SDS011;15328;50.860;10.562;2023-04-25T22:10:52;2.20;;;1.20;;
27999;SDS011;15328;50.860;10.562;2023-04-25T22:15:54;6.50;;;1.48;;
27999;SDS011;15328;50.860;10.562;2023-04-25T22:20:58;5.40;;;1.30;;
27999;SDS011;15328;50.860;10.562;2023-04-25T22:25:58;4.00;;;1.45;;
27999;SDS011;15328;50.860;10.562;2023-04-25T22:30:58;3.83;;;1.45;;
27999;SDS011;15328;50.860;10.562;2023-04-25T22:35:59;4.47;;;1.10;;
27999;SDS011;15328;50.860;10.562;2023-04-25T22:41:00;2.88;;;1.25;;
27999;SDS011;15328;50.860;10.562;2023-04-25T22:46:00;3.78;;;1.30;;
27999;SDS011;15328;50.860;10.562;2023-04-25T22:51:01;4.18;;;1.30;;
27999;SDS011;15328;50.860;10.562;2023-04-25T22:56:02;3.40;;;1.63;;
27999;SDS011;15328;50.860;10.562;2023-04-25T23:01:03;5.75;;;1.33;;
27999;SDS011;15328;50.860;10.562;2023-04-25T23:06:05;3.65;;;1.10;;
27999;SDS011;15328;50.860;10.562;2023-04-25T23:11:06;2.75;;;1.30;;
27999;SDS011;15328;50.860;10.562;2023-04-25T23:16:08;3.05;;;1.63;;
27999;SDS011;15328;50.860;10.562;2023-04-25T23:21:09;4.63;;;1.30;;
27999;SDS011;15328;50.860;10.562;2023-04-25T23:26:11;2.70;;;1.15;;
27999;SDS011;15328;50.860;10.562;2023-04-25T23:31:11;2.05;;;1.20;;
27999;SDS011;15328;50.860;10.562;2023-04-25T23:36:15;3.13;;;1.30;;
27999;SDS011;15328;50.860;10.562;2023-04-25T23:41:18;3.38;;;1.27;;
27999;SDS011;15328;50.860;10.562;2023-04-25T23:46:19;3.20;;;1.08;;
27999;SDS011;15328;50.860;10.562;2023-04-25T23:51:20;5.90;;;1.40;;
27999;SDS011;15328;50.860;10.562;2023-04-25T23:56:20;3.05;;;1.10;;
